createdAt,value
2019-05-05T00:00:35.123Z,99.99
2019-05-05T00:01:34.398Z,99.99
2019-05-05T00:02:34.221Z,99.99
2019-05-05T00:03:34.287Z,99.99
2019-05-05T00:04:34.733Z,99.99
2019-05-05T00:05:35.219Z,99.99
2019-05-05T00:06:34.236Z,99.99
2019-05-05T00:07:34.817Z,99.99
2019-05-05T00:08:32.741Z,99.99
2019-05-05T00:09:34.731Z,99.99
2019-05-05T00:10:34.663Z,99.99
2019-05-05T00:11:35.014Z,99.99
2019-05-05T00:12:34.349Z,99.99
2019-05-05T00:13:34.566Z,99.99
2019-05-05T00:14:32.687Z,99.99
2019-05-05T00:15:34.449Z,99.99
2019-05-05T00:16:32.535Z,99.99
2019-05-05T00:17:34.268Z,99.99
2019-05-05T00:18:34.534Z,99.99
2019-05-05T00:19:33.993Z,99.99
2019-05-05T00:20:34.405Z,99.99
2019-05-05T00:22:32.382Z,99.99
2019-05-05T00:23:34.393Z,99.99
2019-05-05T00:24:34.872Z,99.99
2019-05-05T00:25:34.242Z,99.99
2019-05-05T00:28:32.232Z,99.99
2019-05-05T00:29:32.218Z,99.99
2019-05-05T00:30:34.323Z,99.99
2019-05-05T00:31:32.163Z,99.99
2019-05-05T00:32:32.121Z,99.99
2019-05-05T00:33:34.217Z,99.99
2019-05-05T00:34:32.375Z,99.99
2019-05-05T00:35:32.049Z,99.99
2019-05-05T00:36:32.365Z,99.99
2019-05-05T00:37:32.090Z,99.99
2019-05-05T00:38:32.016Z,99.99
2019-05-05T00:39:34.337Z,99.99
2019-05-05T00:41:31.997Z,99.99
2019-05-05T00:42:31.864Z,99.99
2019-05-05T00:43:34.408Z,99.99
2019-05-05T00:44:31.820Z,99.99
2019-05-05T00:45:31.793Z,99.99
2019-05-05T00:46:31.771Z,99.99
2019-05-05T00:47:31.729Z,99.99
2019-05-05T00:48:31.707Z,99.99
2019-05-05T00:50:31.942Z,99.99
2019-05-05T00:51:31.872Z,99.99
2019-05-05T00:52:31.720Z,99.99
2019-05-05T00:54:31.644Z,99.99
2019-05-05T00:55:31.554Z,99.99
2019-05-05T00:56:31.492Z,99.99
2019-05-05T00:58:31.550Z,99.99
2019-05-05T01:00:31.385Z,99.99
2019-05-05T01:01:31.363Z,99.99
2019-05-05T01:02:31.442Z,99.99
2019-05-05T01:03:31.308Z,99.99
2019-05-05T01:04:31.296Z,99.99
2019-05-05T01:05:31.464Z,99.99
2019-05-05T01:06:31.629Z,99.99
2019-05-05T01:07:31.402Z,99.99
2019-05-05T01:08:31.195Z,99.99
2019-05-05T01:09:31.170Z,99.99
2019-05-05T01:10:31.229Z,99.99
2019-05-05T01:11:31.103Z,99.99
2019-05-05T01:12:31.086Z,99.99
2019-05-05T01:15:31.291Z,99.99
2019-05-05T01:16:30.975Z,99.99
2019-05-05T01:17:30.953Z,99.99
2019-05-05T01:18:30.915Z,99.99
2019-05-05T01:19:31.092Z,99.99
2019-05-05T01:20:30.888Z,99.99
2019-05-05T01:21:30.850Z,99.99
2019-05-05T01:22:31.354Z,99.99
2019-05-05T01:23:30.787Z,99.99
2019-05-05T01:25:30.742Z,99.99
2019-05-05T01:26:30.875Z,99.99
2019-05-05T01:27:30.685Z,99.99
2019-05-05T01:28:30.944Z,99.99
2019-05-05T01:29:30.623Z,99.99
2019-05-05T01:31:30.577Z,99.99
2019-05-05T01:32:30.541Z,99.99
2019-05-05T01:33:30.514Z,99.99
2019-05-05T01:34:30.742Z,99.99
2019-05-05T01:36:30.434Z,99.99
2019-05-05T01:40:30.629Z,99.99
2019-05-05T01:41:30.305Z,99.99
2019-05-05T01:43:30.254Z,99.99
2019-05-05T01:44:30.534Z,99.99
2019-05-05T01:45:30.202Z,99.99
2019-05-05T01:46:30.524Z,99.99
2019-05-05T01:47:30.248Z,99.99
2019-05-05T01:50:30.063Z,99.99
2019-05-05T01:52:31.031Z,99.99
2019-05-05T01:53:30.235Z,99.99
2019-05-05T01:54:29.968Z,99.99
2019-05-05T01:55:30.239Z,99.99
2019-05-05T01:56:29.904Z,99.99
2019-05-05T01:57:29.880Z,99.99
2019-05-05T01:58:29.850Z,99.99
2019-05-05T01:59:30.131Z,99.99
2019-05-05T02:00:29.801Z,99.99
2019-05-05T02:01:29.771Z,99.99
2019-05-05T02:02:30.142Z,99.99
2019-05-05T02:03:29.819Z,99.99
2019-05-05T02:04:29.793Z,99.99
2019-05-05T02:05:29.766Z,99.99
2019-05-05T02:06:29.941Z,99.99
2019-05-05T02:07:29.711Z,99.99
2019-05-05T02:08:29.587Z,99.99
2019-05-05T02:09:29.559Z,99.99
2019-05-05T02:10:29.635Z,99.99
2019-05-05T02:11:29.705Z,99.99
2019-05-05T02:12:29.480Z,99.99
2019-05-05T02:13:29.854Z,99.99
2019-05-05T02:14:29.439Z,99.99
2019-05-05T02:15:29.404Z,99.99
2019-05-05T02:16:29.516Z,99.99
2019-05-05T02:17:29.459Z,99.99
2019-05-05T02:19:29.395Z,99.99
2019-05-05T02:20:31.338Z,99.99
2019-05-05T02:21:29.491Z,99.99
2019-05-05T02:22:29.368Z,99.99
2019-05-05T02:24:29.360Z,99.99
2019-05-05T02:25:29.287Z,99.99
2019-05-05T02:26:29.241Z,99.99
2019-05-05T02:27:29.472Z,99.99
2019-05-05T02:28:29.201Z,99.99
2019-05-05T02:29:29.129Z,99.99
2019-05-05T02:30:29.157Z,99.99
2019-05-05T02:31:28.978Z,99.99
2019-05-05T02:32:29.049Z,99.99
2019-05-05T02:33:28.921Z,99.99
2019-05-05T02:34:29.203Z,99.99
2019-05-05T02:35:28.879Z,99.99
2019-05-05T02:36:28.841Z,99.99
2019-05-05T02:37:28.832Z,99.99
2019-05-05T02:38:28.793Z,99.99
2019-05-05T02:39:28.882Z,99.99
2019-05-05T02:41:28.767Z,99.99
2019-05-05T02:42:29.102Z,99.99
2019-05-05T02:43:28.665Z,99.99
2019-05-05T02:44:28.929Z,99.99
2019-05-05T02:45:28.636Z,99.99
2019-05-05T02:46:28.577Z,99.99
2019-05-05T02:47:28.849Z,99.99
2019-05-05T02:48:28.530Z,99.99
2019-05-05T02:49:28.821Z,99.99
2019-05-05T02:50:28.478Z,99.99
2019-05-05T02:51:28.454Z,99.99
2019-05-05T02:52:28.535Z,99.99
2019-05-05T02:53:28.495Z,99.99
2019-05-05T02:54:28.485Z,99.99
2019-05-05T02:55:28.720Z,99.99
2019-05-05T02:56:28.315Z,99.99
2019-05-05T02:57:28.288Z,99.99
2019-05-05T02:58:28.265Z,99.99
2019-05-05T02:59:28.233Z,99.99
2019-05-05T03:00:28.508Z,99.99
2019-05-05T03:01:28.478Z,99.99
2019-05-05T03:02:28.154Z,99.99
2019-05-05T03:03:28.327Z,99.99
2019-05-05T03:04:28.095Z,99.99
2019-05-05T03:05:28.076Z,99.99
2019-05-05T03:06:28.046Z,99.99
2019-05-05T03:07:28.325Z,99.99
2019-05-05T03:08:27.991Z,99.99
2019-05-05T03:10:27.940Z,99.99
2019-05-05T03:11:27.914Z,99.99
2019-05-05T03:12:27.882Z,99.99
2019-05-05T03:15:28.105Z,99.99
2019-05-05T03:16:27.783Z,99.99
2019-05-05T03:17:27.749Z,99.99
2019-05-05T03:18:27.722Z,99.99
2019-05-05T03:19:27.704Z,99.99
2019-05-05T03:20:27.688Z,99.99
2019-05-05T03:21:27.943Z,99.99
2019-05-05T03:22:27.616Z,99.99
2019-05-05T03:23:27.993Z,99.99
2019-05-05T03:24:27.566Z,99.99
2019-05-05T03:25:27.642Z,99.99
2019-05-05T03:26:27.510Z,99.99
2019-05-05T03:27:27.480Z,99.99
2019-05-05T03:28:27.760Z,99.99
2019-05-05T03:29:27.630Z,99.99
2019-05-05T03:30:27.399Z,99.99
2019-05-05T03:31:27.375Z,99.99
2019-05-05T03:33:27.332Z,99.99
2019-05-05T03:34:27.311Z,99.99
2019-05-05T03:35:27.572Z,99.99
2019-05-05T03:36:27.537Z,99.99
2019-05-05T03:37:27.311Z,99.99
2019-05-05T03:39:27.161Z,99.99
2019-05-05T03:40:27.129Z,99.99
2019-05-05T03:41:27.402Z,99.99
2019-05-05T03:42:27.380Z,99.99
2019-05-05T03:43:27.163Z,99.99
2019-05-05T03:44:27.019Z,99.99
2019-05-05T03:45:27.203Z,99.99
2019-05-05T03:46:26.969Z,99.99
2019-05-05T03:47:26.983Z,99.99
2019-05-05T03:48:26.968Z,99.99
2019-05-05T03:49:27.188Z,99.99
2019-05-05T03:50:26.976Z,99.99
2019-05-05T03:51:26.952Z,99.99
2019-05-05T03:52:26.808Z,99.99
2019-05-05T03:53:26.788Z,99.99
2019-05-05T03:54:26.753Z,99.99
2019-05-05T03:55:26.729Z,99.99
2019-05-05T03:56:27.030Z,99.99
2019-05-05T03:57:26.674Z,99.99
2019-05-05T03:58:26.646Z,99.99
2019-05-05T03:59:26.620Z,99.99
2019-05-05T04:00:26.595Z,99.99
2019-05-05T04:01:26.658Z,99.99
2019-05-05T04:02:26.536Z,99.99
2019-05-05T04:03:26.816Z,99.99
2019-05-05T04:04:26.509Z,99.99
2019-05-05T04:05:26.487Z,99.99
2019-05-05T04:06:26.425Z,99.99
2019-05-05T04:08:26.373Z,99.99
2019-05-05T04:09:26.342Z,99.99
2019-05-05T04:10:26.622Z,99.99
2019-05-05T04:11:26.372Z,99.99
2019-05-05T04:12:26.260Z,99.99
2019-05-05T04:13:26.234Z,99.99
2019-05-05T04:14:26.217Z,99.99
2019-05-05T04:16:26.456Z,99.99
2019-05-05T04:17:26.544Z,99.99
2019-05-05T04:18:26.450Z,99.99
2019-05-05T04:19:26.088Z,99.99
2019-05-05T04:20:26.185Z,99.99
2019-05-05T04:21:33.498Z,99.99
2019-05-05T04:22:26.303Z,99.99
2019-05-05T04:23:25.969Z,99.99
2019-05-05T04:24:25.936Z,99.99
2019-05-05T04:25:25.909Z,99.99
2019-05-05T04:26:25.890Z,99.99
2019-05-05T04:27:25.859Z,99.99
2019-05-05T04:28:26.128Z,99.99
2019-05-05T04:29:25.902Z,99.99
2019-05-05T04:30:25.777Z,99.99
2019-05-05T04:31:25.744Z,99.99
2019-05-05T04:32:25.838Z,99.99
2019-05-05T04:33:25.981Z,99.99
2019-05-05T04:35:25.756Z,99.99
2019-05-05T04:36:25.709Z,99.99
2019-05-05T04:37:25.620Z,99.99
2019-05-05T04:38:25.859Z,99.99
2019-05-05T04:40:25.504Z,99.99
2019-05-05T04:41:25.776Z,99.99
2019-05-05T04:42:25.459Z,99.99
2019-05-05T04:43:25.432Z,99.99
2019-05-05T04:44:25.475Z,99.99
2019-05-05T04:46:25.589Z,99.99
2019-05-05T04:47:25.570Z,99.99
2019-05-05T04:48:25.292Z,99.99
2019-05-05T04:49:25.278Z,99.99
2019-05-05T04:50:25.959Z,99.99
2019-05-05T04:51:25.213Z,99.99
2019-05-05T04:52:25.190Z,99.99
2019-05-05T04:53:25.256Z,99.99
2019-05-05T04:55:25.104Z,99.99
2019-05-05T04:56:25.379Z,99.99
2019-05-05T04:57:25.060Z,99.99
2019-05-05T04:58:25.031Z,99.99
2019-05-05T04:59:25.004Z,99.99
2019-05-05T05:00:25.010Z,99.99
2019-05-05T05:01:25.292Z,99.99
2019-05-05T05:02:24.918Z,99.99
2019-05-05T05:03:24.990Z,99.99
2019-05-05T05:05:25.174Z,99.99
2019-05-05T05:06:24.822Z,99.99
2019-05-05T05:08:24.887Z,99.99
2019-05-05T05:09:25.046Z,99.99
2019-05-05T05:10:24.726Z,99.99
2019-05-05T05:11:24.742Z,99.99
2019-05-05T05:12:24.753Z,99.99
2019-05-05T05:13:24.694Z,99.99
2019-05-05T05:14:24.849Z,99.99
2019-05-05T05:15:24.687Z,99.99
2019-05-05T05:16:24.849Z,99.99
2019-05-05T05:17:25.076Z,99.99
2019-05-05T05:18:24.497Z,99.99
2019-05-05T05:19:24.476Z,99.99
2019-05-05T05:20:24.709Z,99.99
2019-05-05T05:21:24.436Z,99.99
2019-05-05T05:22:24.495Z,99.99
2019-05-05T05:23:24.867Z,99.99
2019-05-05T05:24:24.439Z,99.99
2019-05-05T05:25:24.315Z,99.99
2019-05-05T05:26:24.338Z,99.99
2019-05-05T05:27:24.584Z,99.99
2019-05-05T05:29:24.232Z,99.99
2019-05-05T05:30:24.484Z,99.99
2019-05-05T05:31:24.511Z,99.99
2019-05-05T05:33:24.107Z,99.99
2019-05-05T05:34:24.099Z,99.99
2019-05-05T05:36:24.804Z,99.99
2019-05-05T05:37:24.405Z,99.99
2019-05-05T05:38:24.300Z,99.99
2019-05-05T05:39:24.438Z,99.99
2019-05-05T05:40:24.026Z,99.99
2019-05-05T05:41:23.960Z,99.99
2019-05-05T05:42:24.203Z,99.99
2019-05-05T05:43:25.390Z,99.99
2019-05-05T05:44:26.390Z,99.99
2019-05-05T05:45:23.872Z,99.99
2019-05-05T05:46:24.121Z,99.99
2019-05-05T05:47:24.461Z,99.99
2019-05-05T05:48:23.844Z,99.99
2019-05-05T05:49:24.231Z,99.99
2019-05-05T05:50:24.542Z,99.99
2019-05-05T05:52:24.225Z,99.99
2019-05-05T05:53:24.415Z,99.99
2019-05-05T05:56:24.941Z,99.99
2019-05-05T05:57:24.116Z,99.99
2019-05-05T05:58:24.498Z,99.99
2019-05-05T05:59:24.722Z,99.99
2019-05-05T06:00:23.817Z,99.99
2019-05-05T06:01:24.026Z,99.99
2019-05-05T06:02:24.223Z,99.99
2019-05-05T06:03:24.554Z,99.99
2019-05-05T06:04:23.628Z,99.99
2019-05-05T06:05:23.905Z,99.99
2019-05-05T06:06:24.158Z,99.99
2019-05-05T06:07:24.507Z,99.99
2019-05-05T06:08:24.275Z,99.99
2019-05-05T06:09:23.781Z,99.99
2019-05-05T06:10:26.673Z,99.99
2019-05-05T06:11:23.872Z,99.99
2019-05-05T06:12:24.564Z,99.99
2019-05-05T06:13:24.174Z,99.99
2019-05-05T06:14:24.708Z,99.99
2019-05-05T06:15:24.458Z,99.99
2019-05-05T06:16:23.556Z,99.99
2019-05-05T06:17:23.753Z,99.99
2019-05-05T06:18:24.387Z,99.99
2019-05-05T06:19:24.634Z,99.99
2019-05-05T06:20:23.838Z,99.99
2019-05-05T06:22:29.301Z,99.99
2019-05-05T06:23:24.030Z,99.99
2019-05-05T06:24:24.003Z,99.99
2019-05-05T06:26:24.044Z,99.99
2019-05-05T06:27:23.638Z,99.99
2019-05-05T06:28:23.686Z,99.99
2019-05-05T06:29:23.901Z,99.99
2019-05-05T06:30:24.419Z,99.99
2019-05-05T06:32:23.830Z,99.99
2019-05-05T06:33:24.116Z,99.99
2019-05-05T06:35:24.410Z,99.99
2019-05-05T06:36:23.447Z,99.44
2019-05-05T06:37:23.827Z,99.44
2019-05-05T06:38:24.179Z,99.63
2019-05-05T06:39:24.148Z,99.30
2019-05-05T06:40:23.365Z,99.30
2019-05-05T06:41:23.713Z,99.30
2019-05-05T06:42:23.670Z,99.11
2019-05-05T06:43:23.724Z,97.69
2019-05-05T06:44:24.622Z,96.83
2019-05-05T06:45:23.877Z,96.36
2019-05-05T06:46:23.631Z,96.83
2019-05-05T06:47:23.697Z,97.02
2019-05-05T06:48:23.720Z,97.60
2019-05-05T06:49:23.787Z,97.60
2019-05-05T06:50:24.193Z,97.50
2019-05-05T06:51:24.386Z,97.78
2019-05-05T06:52:24.735Z,97.60
2019-05-05T06:53:23.922Z,96.17
2019-05-05T06:55:22.224Z,95.36
2019-05-05T06:57:24.025Z,94.51
2019-05-05T06:59:24.336Z,95.27
2019-05-05T07:00:24.071Z,95.08
2019-05-05T07:01:22.045Z,94.32
2019-05-05T07:02:23.680Z,93.56
2019-05-05T07:05:23.562Z,92.80
2019-05-05T07:06:23.806Z,92.71
2019-05-05T07:07:23.637Z,92.42
2019-05-05T07:08:24.070Z,92.04
2019-05-05T07:09:24.479Z,92.04
2019-05-05T07:10:21.765Z,92.61
2019-05-05T07:11:23.652Z,92.56
2019-05-05T07:13:21.811Z,92.27
2019-05-05T07:14:23.559Z,92.66
2019-05-05T07:15:23.732Z,92.56
2019-05-05T07:16:21.628Z,91.61
2019-05-05T07:17:21.601Z,91.33
2019-05-05T07:18:21.636Z,91.13
2019-05-05T07:20:21.546Z,90.19
2019-05-05T07:24:23.707Z,88.13
2019-05-05T07:25:21.565Z,87.76
2019-05-05T07:26:23.668Z,86.71
2019-05-05T07:27:21.454Z,86.09
2019-05-05T07:29:23.736Z,84.19
2019-05-05T07:30:21.632Z,83.62
2019-05-05T07:31:21.299Z,83.37
2019-05-05T07:32:21.370Z,82.80
2019-05-05T07:33:23.763Z,82.56
2019-05-05T07:34:21.332Z,82.27
2019-05-05T07:35:21.207Z,81.13
2019-05-05T07:36:21.288Z,80.12
2019-05-05T07:37:23.702Z,79.27
2019-05-05T07:38:21.251Z,78.73
2019-05-05T07:39:21.134Z,77.97
2019-05-05T07:40:21.697Z,77.74
2019-05-05T07:41:21.122Z,77.93
2019-05-05T07:42:21.072Z,77.97
2019-05-05T07:43:21.056Z,77.78
2019-05-05T07:44:26.627Z,76.86
2019-05-05T07:45:25.114Z,76.20
2019-05-05T07:46:21.130Z,74.67
2019-05-05T07:47:20.984Z,74.42
2019-05-05T07:49:21.040Z,73.47
2019-05-05T07:50:29.464Z,72.86
2019-05-05T07:52:20.895Z,73.24
2019-05-05T07:53:21.018Z,72.67
2019-05-05T07:54:21.084Z,72.42
2019-05-05T07:56:23.649Z,71.08
2019-05-05T07:57:20.819Z,70.45
2019-05-05T07:59:21.113Z,67.33
2019-05-05T08:01:20.819Z,65.64
2019-05-05T08:02:23.517Z,66.88
2019-05-05T08:03:23.497Z,66.69
2019-05-05T08:04:20.670Z,66.31
2019-05-05T08:05:21.121Z,66.60
2019-05-05T08:06:20.640Z,66.92
2019-05-05T08:07:20.625Z,66.72
2019-05-05T08:09:22.644Z,65.64
2019-05-05T08:10:20.579Z,64.59
2019-05-05T08:12:21.388Z,64.59
2019-05-05T08:13:20.542Z,64.78
2019-05-05T08:14:20.515Z,63.76
2019-05-05T08:15:20.500Z,63.23
2019-05-05T08:16:20.971Z,62.14
2019-05-05T08:17:20.865Z,58.93
2019-05-05T08:18:20.760Z,59.02
2019-05-05T08:19:20.493Z,58.90
2019-05-05T08:20:20.459Z,59.78
2019-05-05T08:21:20.402Z,59.24
2019-05-05T08:22:20.802Z,58.93
2019-05-05T08:23:30.303Z,59.98
2019-05-05T08:24:20.384Z,59.98
2019-05-05T08:25:34.504Z,60.17
2019-05-05T08:26:20.392Z,59.53
2019-05-05T08:27:21.061Z,59.37
2019-05-05T08:28:20.602Z,58.89
2019-05-05T08:29:20.353Z,58.38
2019-05-05T08:30:20.343Z,58.86
2019-05-05T08:31:20.857Z,59.08
2019-05-05T08:32:20.260Z,58.51
2019-05-05T08:33:20.263Z,57.75
2019-05-05T08:35:20.556Z,54.39
2019-05-05T08:36:20.250Z,54.37
2019-05-05T08:37:20.353Z,56.28
2019-05-05T08:39:21.603Z,56.40
2019-05-05T08:40:20.143Z,54.27
2019-05-05T08:41:20.490Z,53.70
2019-05-05T08:42:20.130Z,54.53
2019-05-05T08:43:20.104Z,55.46
2019-05-05T08:44:20.290Z,55.46
2019-05-05T08:45:20.075Z,55.84
2019-05-05T08:46:20.069Z,56.23
2019-05-05T08:47:20.397Z,55.77
2019-05-05T08:49:20.316Z,54.57
2019-05-05T08:50:20.024Z,55.88
2019-05-05T08:51:20.022Z,57.50
2019-05-05T08:52:20.020Z,57.06
2019-05-05T08:53:20.255Z,56.51
2019-05-05T08:54:19.944Z,57.43
2019-05-05T08:55:19.930Z,57.60
2019-05-05T08:56:19.963Z,58.52
2019-05-05T08:57:20.001Z,60.78
2019-05-05T08:59:20.142Z,58.70
2019-05-05T09:00:19.891Z,58.80
2019-05-05T09:01:19.852Z,56.82
2019-05-05T09:02:19.861Z,55.58
2019-05-05T09:03:19.851Z,54.63
2019-05-05T09:04:19.870Z,54.72
2019-05-05T09:05:19.805Z,54.08
2019-05-05T09:06:20.086Z,54.08
2019-05-05T09:07:19.981Z,54.06
2019-05-05T09:08:19.766Z,54.06
2019-05-05T09:09:19.754Z,52.53
2019-05-05T09:10:19.861Z,52.88
2019-05-05T09:11:19.721Z,55.91
2019-05-05T09:12:19.722Z,58.36
2019-05-05T09:13:19.990Z,60.05
2019-05-05T09:14:19.679Z,60.91
2019-05-05T09:15:19.670Z,61.57
2019-05-05T09:16:19.685Z,61.67
2019-05-05T09:19:19.921Z,60.14
2019-05-05T09:20:19.772Z,60.52
2019-05-05T09:21:25.011Z,60.52
2019-05-05T09:22:20.328Z,61.16
2019-05-05T09:23:19.567Z,61.83
2019-05-05T09:24:19.610Z,61.93
2019-05-05T09:25:19.533Z,61.83
2019-05-05T09:26:19.838Z,62.21
2019-05-05T09:27:19.507Z,61.73
2019-05-05T09:28:19.478Z,62.02
2019-05-05T09:29:19.470Z,61.93
2019-05-05T09:30:19.446Z,61.54
2019-05-05T09:32:19.467Z,61.93
2019-05-05T09:33:19.868Z,61.83
2019-05-05T09:34:19.512Z,60.69
2019-05-05T09:35:19.374Z,60.30
2019-05-05T09:36:19.352Z,60.24
2019-05-05T09:37:19.357Z,59.95
2019-05-05T09:38:19.537Z,60.02
2019-05-05T09:39:19.307Z,58.93
2019-05-05T09:40:19.584Z,57.84
2019-05-05T09:41:19.288Z,54.93
2019-05-05T09:42:19.324Z,52.20
2019-05-05T09:43:19.256Z,50.43
2019-05-05T09:44:19.244Z,50.94
2019-05-05T09:45:19.223Z,49.15
2019-05-05T09:46:19.527Z,47.13
2019-05-05T09:47:19.499Z,46.89
2019-05-05T09:48:19.169Z,47.25
2019-05-05T09:49:19.155Z,49.05
2019-05-05T09:50:19.243Z,50.58
2019-05-05T09:51:19.135Z,50.74
2019-05-05T09:52:19.427Z,49.55
2019-05-05T09:53:19.580Z,49.55
2019-05-05T09:54:19.099Z,50.57
2019-05-05T09:56:19.072Z,52.59
2019-05-05T09:57:19.139Z,54.67
2019-05-05T09:58:19.060Z,54.77
2019-05-05T10:00:19.206Z,55.50
2019-05-05T10:01:19.225Z,56.07
2019-05-05T10:02:19.096Z,56.46
2019-05-05T10:03:18.987Z,56.24
2019-05-05T10:04:19.679Z,56.65
2019-05-05T10:05:20.261Z,57.03
2019-05-05T10:06:19.691Z,56.55
2019-05-05T10:07:19.337Z,56.62
2019-05-05T10:08:19.720Z,56.52
2019-05-05T10:09:19.254Z,57.50
2019-05-05T10:10:19.024Z,57.22
2019-05-05T10:11:19.249Z,57.34
2019-05-05T10:13:18.835Z,55.75
2019-05-05T10:14:18.896Z,55.65
2019-05-05T10:15:18.808Z,55.65
2019-05-05T10:16:18.855Z,56.16
2019-05-05T10:17:19.089Z,56.45
2019-05-05T10:18:19.893Z,56.45
2019-05-05T10:19:18.752Z,54.82
2019-05-05T10:20:18.846Z,54.60
2019-05-05T10:21:18.796Z,55.18
2019-05-05T10:22:18.734Z,54.79
2019-05-05T10:23:19.051Z,54.57
2019-05-05T10:24:28.674Z,55.41
2019-05-05T10:25:18.813Z,56.55
2019-05-05T10:26:18.664Z,57.34
2019-05-05T10:27:18.632Z,57.63
2019-05-05T10:28:18.793Z,57.43
2019-05-05T10:29:18.909Z,57.53
2019-05-05T10:30:18.653Z,56.77
2019-05-05T10:31:18.584Z,56.48
2019-05-05T10:32:18.571Z,56.67
2019-05-05T10:33:18.612Z,56.87
2019-05-05T10:34:18.525Z,56.51
2019-05-05T10:35:18.515Z,56.80
2019-05-05T10:36:18.864Z,57.21
2019-05-05T10:37:18.477Z,56.16
2019-05-05T10:38:18.459Z,55.61
2019-05-05T10:39:18.453Z,53.73
2019-05-05T10:40:18.936Z,51.36
2019-05-05T10:41:18.630Z,49.48
2019-05-05T10:43:18.911Z,47.73
2019-05-05T10:44:18.724Z,45.62
2019-05-05T10:45:19.131Z,45.96
2019-05-05T10:46:18.412Z,46.82
2019-05-05T10:47:18.728Z,46.62
2019-05-05T10:48:18.509Z,47.63
2019-05-05T10:49:18.367Z,49.62
2019-05-05T10:50:18.664Z,49.80
2019-05-05T10:51:18.465Z,50.55
2019-05-05T10:52:18.314Z,51.09
2019-05-05T10:53:18.296Z,51.48
2019-05-05T10:54:18.260Z,51.53
2019-05-05T10:55:18.320Z,50.52
2019-05-05T10:57:18.558Z,47.75
2019-05-05T10:58:18.323Z,47.47
2019-05-05T10:59:18.446Z,47.01
2019-05-05T11:00:18.741Z,45.21
2019-05-05T11:01:18.285Z,45.59
2019-05-05T11:02:18.399Z,46.01
2019-05-05T11:03:18.477Z,46.66
2019-05-05T11:04:18.438Z,48.30
2019-05-05T11:05:18.224Z,49.02
2019-05-05T11:06:18.249Z,47.75
2019-05-05T11:07:18.295Z,46.96
2019-05-05T11:08:18.184Z,47.61
2019-05-05T11:09:18.110Z,48.38
2019-05-05T11:10:18.396Z,49.40
2019-05-05T11:11:18.085Z,49.98
2019-05-05T11:12:18.406Z,50.98
2019-05-05T11:13:18.075Z,50.05
2019-05-05T11:14:18.052Z,47.42
2019-05-05T11:15:18.062Z,47.46
2019-05-05T11:16:20.346Z,45.59
2019-05-05T11:17:18.433Z,45.25
2019-05-05T11:18:18.011Z,43.35
2019-05-05T11:19:18.194Z,42.99
2019-05-05T11:20:18.031Z,41.38
2019-05-05T11:21:17.982Z,40.81
2019-05-05T11:24:18.489Z,45.33
2019-05-05T11:25:17.944Z,45.67
2019-05-05T11:26:18.011Z,45.14
2019-05-05T11:27:17.945Z,42.98
2019-05-05T11:28:17.930Z,43.49
2019-05-05T11:29:17.950Z,46.31
2019-05-05T11:30:17.907Z,47.27
2019-05-05T11:31:17.937Z,46.72
2019-05-05T11:32:18.002Z,46.53
2019-05-05T11:33:17.983Z,47.01
2019-05-05T11:34:17.913Z,46.15
2019-05-05T11:35:17.869Z,44.93
2019-05-05T11:36:18.180Z,45.52
2019-05-05T11:37:17.852Z,45.26
2019-05-05T11:38:17.856Z,44.13
2019-05-05T11:39:17.887Z,43.48
2019-05-05T11:41:17.823Z,42.90
2019-05-05T11:43:18.195Z,42.10
2019-05-05T11:45:18.932Z,43.55
2019-05-05T11:46:17.750Z,42.77
2019-05-05T11:47:18.104Z,43.23
2019-05-05T11:48:18.138Z,43.77
2019-05-05T11:49:18.047Z,44.54
2019-05-05T11:50:17.839Z,44.83
2019-05-05T11:51:17.716Z,45.90
2019-05-05T11:52:17.817Z,45.68
2019-05-05T11:53:17.886Z,43.62
2019-05-05T11:54:18.039Z,41.60
2019-05-05T11:55:17.858Z,41.16
2019-05-05T11:56:17.968Z,39.39
2019-05-05T11:57:17.702Z,40.67
2019-05-05T11:59:17.646Z,43.80
2019-05-05T12:00:17.927Z,45.19
2019-05-05T12:01:17.631Z,46.20
2019-05-05T12:02:18.000Z,47.89
2019-05-05T12:03:18.147Z,49.62
2019-05-05T12:04:17.700Z,50.55
2019-05-05T12:05:17.686Z,50.45
2019-05-05T12:06:18.656Z,51.31
2019-05-05T12:07:18.028Z,51.98
2019-05-05T12:08:17.839Z,52.96
2019-05-05T12:09:17.666Z,52.08
2019-05-05T12:10:17.928Z,52.26
2019-05-05T12:11:18.099Z,52.94
2019-05-05T12:12:17.637Z,54.08
2019-05-05T12:13:17.827Z,54.94
2019-05-05T12:14:18.899Z,54.71
2019-05-05T12:15:17.584Z,52.75
2019-05-05T12:17:17.571Z,48.40
2019-05-05T12:18:17.639Z,48.28
2019-05-05T12:19:17.554Z,48.95
2019-05-05T12:21:17.994Z,49.88
2019-05-05T12:23:17.495Z,47.87
2019-05-05T12:24:17.554Z,47.25
2019-05-05T12:25:27.706Z,47.00
2019-05-05T12:26:17.702Z,45.23
2019-05-05T12:27:18.112Z,46.34
2019-05-05T12:28:17.412Z,47.34
2019-05-05T12:31:17.780Z,47.03
2019-05-05T12:32:17.855Z,47.06
2019-05-05T12:33:17.383Z,49.29
2019-05-05T12:34:20.053Z,50.98
2019-05-05T12:36:17.580Z,50.65
2019-05-05T12:37:17.960Z,49.81
2019-05-05T12:38:17.388Z,49.93
2019-05-05T12:39:17.332Z,49.84
2019-05-05T12:41:17.404Z,48.07
2019-05-05T12:42:18.302Z,46.84
2019-05-05T12:43:17.314Z,45.68
2019-05-05T12:44:17.395Z,45.73
2019-05-05T12:45:17.371Z,45.23
2019-05-05T12:46:17.160Z,45.23
2019-05-05T12:47:17.453Z,45.64
2019-05-05T12:48:17.142Z,46.26
2019-05-05T12:49:18.125Z,44.48
2019-05-05T12:50:17.312Z,44.87
2019-05-05T12:52:17.288Z,46.86
2019-05-05T12:53:17.271Z,48.33
2019-05-05T12:54:18.517Z,47.92
2019-05-05T12:55:20.234Z,47.85
2019-05-05T12:56:17.112Z,46.79
2019-05-05T12:57:17.065Z,46.26
2019-05-05T12:58:17.357Z,45.68
2019-05-05T12:59:22.228Z,45.43
2019-05-05T13:00:17.240Z,45.54
2019-05-05T13:01:17.025Z,45.37
2019-05-05T13:02:17.012Z,45.28
2019-05-05T13:03:17.035Z,45.68
2019-05-05T13:04:17.337Z,45.71
2019-05-05T13:05:17.023Z,44.63
2019-05-05T13:06:17.279Z,45.36
2019-05-05T13:07:16.964Z,46.31
2019-05-05T13:08:16.954Z,47.53
2019-05-05T13:09:17.043Z,47.34
2019-05-05T13:10:16.952Z,46.65
2019-05-05T13:11:17.106Z,48.47
2019-05-05T13:13:17.287Z,50.34
2019-05-05T13:14:17.039Z,51.56
2019-05-05T13:15:16.906Z,53.37
2019-05-05T13:16:16.881Z,53.94
2019-05-05T13:17:17.081Z,55.07
2019-05-05T13:18:16.953Z,57.62
2019-05-05T13:19:17.314Z,61.32
2019-05-05T13:20:16.856Z,63.60
2019-05-05T13:21:16.838Z,65.61
2019-05-05T13:22:16.913Z,67.77
2019-05-05T13:23:17.076Z,68.63
2019-05-05T13:24:16.822Z,69.93
2019-05-05T13:25:17.231Z,70.22
2019-05-05T13:27:19.374Z,71.56
2019-05-05T13:28:16.873Z,72.42
2019-05-05T13:30:16.774Z,73.94
2019-05-05T13:31:17.483Z,76.90
2019-05-05T13:32:16.753Z,76.23
2019-05-05T13:33:17.027Z,77.86
2019-05-05T13:34:16.667Z,77.95
2019-05-05T13:35:16.665Z,76.42
2019-05-05T13:37:17.312Z,73.94
2019-05-05T13:38:16.865Z,73.85
2019-05-05T13:39:16.584Z,73.56
2019-05-05T13:40:16.720Z,72.80
2019-05-05T13:41:16.596Z,73.18
2019-05-05T13:42:16.586Z,72.51
2019-05-05T13:43:16.621Z,72.64
2019-05-05T13:44:16.869Z,72.45
2019-05-05T13:45:16.576Z,70.77
2019-05-05T13:46:16.518Z,70.73
2019-05-05T13:47:16.568Z,71.12
2019-05-05T13:48:16.462Z,71.59
2019-05-05T13:49:16.565Z,71.88
2019-05-05T13:50:16.513Z,71.06
2019-05-05T13:51:16.999Z,70.90
2019-05-05T13:52:17.017Z,69.73
2019-05-05T13:53:16.359Z,66.70
2019-05-05T13:54:16.438Z,65.65
2019-05-05T13:55:16.519Z,64.92
2019-05-05T13:56:18.084Z,64.50
2019-05-05T13:57:16.314Z,63.93
2019-05-05T13:58:16.605Z,64.50
2019-05-05T13:59:16.367Z,64.66
2019-05-05T14:00:16.245Z,64.75
2019-05-05T14:01:16.243Z,66.19
2019-05-05T14:02:16.226Z,65.81
2019-05-05T14:03:16.215Z,66.50
2019-05-05T14:04:16.477Z,67.18
2019-05-05T14:05:16.429Z,68.23
2019-05-05T14:07:16.170Z,65.08
2019-05-05T14:08:16.136Z,64.47
2019-05-05T14:09:16.126Z,64.75
2019-05-05T14:10:16.125Z,65.94
2019-05-05T14:12:16.559Z,63.13
2019-05-05T14:13:16.079Z,62.96
2019-05-05T14:14:16.088Z,61.27
2019-05-05T14:15:16.075Z,59.58
2019-05-05T14:16:16.043Z,59.11
2019-05-05T14:17:16.017Z,60.51
2019-05-05T14:18:16.022Z,60.73
2019-05-05T14:19:16.300Z,59.42
2019-05-05T14:20:16.011Z,58.05
2019-05-05T14:21:16.021Z,58.31
2019-05-05T14:22:15.978Z,58.91
2019-05-05T14:23:15.981Z,58.65
2019-05-05T14:25:16.038Z,57.57
2019-05-05T14:26:25.013Z,58.88
2019-05-05T14:27:15.924Z,59.20
2019-05-05T14:28:18.110Z,59.20
2019-05-05T14:29:15.892Z,59.23